Flight Briefing for CPX665

Departure Arrival
Savannah/Hilton Head International Airport (KSAV)
Click to view FAA NOTAMS
Miami International Airport (KMIA)
Click to view FAA NOTAMS
Departure Time Arrival Time
N/A N/A
Aircraft Distance
SF340AF 382nm
Departure METAR Arrival METAR
KSAV 230553Z AUTO 15009KT 10SM FEW020 26/23 A3020 RMK AO2 SLP226 T02560228 10278 20256 56001 KMIA 230553Z 08014G18KT 10SM SCT030 SCT070 27/20 A3009 RMK AO2 SLP190 60001 T02720200 10278 20267 58006
Suggested Route
KELER V437 OMN V3 FLL


View recent IFR Routes data
Notes



Charts and Procedures

Charts for KSAV
No chart available
Charts for KMIA
No chart available

Windy.com Weather Map